Highgate, VT

9:40 AM EST on December 03, 2016 (GMT -0500)
Franklin County State | | Change Station

Elev 226 ft 44.94 °N, 73.10 °W | Updated 5 minutes ago

Light Snow
Light Snow
32 °F
Feels Like 25 °F
N
8
Wind Variable Wind from West
Gusts 16 mph

Today
High -- | Low -- °F
--% Chance of Precip.
Yesterday
High -- | Low -- °F
Precip. -- in
Pressure 29.94 in
Visibility 3.0 miles
Clouds Overcast 900 ft
Windchill 25 °F
Dew Point 32 °F
Humidity 97%
Rainfall 0.00 in
Snow Depth Not available.
7:12 AM 4:11 PM
Waxing Crescent, 15% visible
METAR KFSO 031435Z AUTO 28007G14KT 240V300 3SM -SN OVC009 00/00 A2994 RMK AO2 T00021002
Pressure 29.94 in
Visibility 3.0 miles
Clouds Overcast 900 ft
Windchill 25 °F
Dew Point 32 °F
Humidity 97%
Rainfall 0.00 in
Snow Depth Not available.
7:12 AM 4:11 PM
Waxing Crescent, 15% visible
METAR KFSO 031435Z AUTO 28007G14KT 240V300 3SM -SN OVC009 00/00 A2994 RMK AO2 T00021002

10-Day Weather Forecast

Almanac

Astronomy

Dec. 03, 2016 Rise Set
Actual Time
Civil Twilight
Nautical Twilight
Astronomical Twilight
Moon
Length of Visible Light
Length of Day
Tomorrow will be .
, % of the Moon is Illuminated

Today's Extremes

State Highs State Lows

Community

WunderPhotos

Upload Photos

1,955,446 photos uploaded!

WunderBlog® & News

Nearby

Air Quality

  Air Quality AQ Index Pollutant
Not available.

Snow Depth

Station Depth Elevation

Earthquake Activity

City Distance Mag. Time & Date
Minimum magnitude displayed is 2.5.

Coastal Water Temperatures

Place Temperature

Stations

Nearby Weather Stations

Station Location Temp. Windchill Dew Point Humidity Wind Precip. Elev Updated Type
                   

Watches & Warnings

There are currently no watches in effect.